PDK - Dekalb Peachtree

Pirep is a free, collaborative database of all public and private airports located within the United States. All pilots are welcome to contribute, edit, and improve any airport they have local knowledge about, no registration required.
Uploaded photos will be licensed under a CC BY-SA 4.0 license. Please only upload photos you have the rights to use.
Tags
Public
Food
Car Rental
METAR / TAF
Edit Tags
Camping
Lodging
Bicycles
Swimming
Golfing
Fishing
Hot Springs
Museum
Flying Clubs
Airpark
Upcoming Events
No upcoming events. Is anything happening here soon?
*
*
*

Where exactly on/near the airport is this event taking place?

Is there a webpage with more information for this event?

Who should be contacted for more information?

What is this event all about?

Repeat every
Description
Last updated: 2023-12-10 16:54:50 EST
Transient Parking
Fuel Location
Last updated: 2023-03-29 09:45:31 EDT
Landing & Tie-down Fees
Crew Car Availability
Flying Clubs
Last updated: 2024-03-04 22:13:59 EST
WiFi Access
Airport Statistics
Location: Atlanta, GA
Elevation: 998ft
Sectional: Atlanta
Fuel: 100LL, A, A+ (prices)
Runway 03R/21L: 6,001ft
Runway 16/34: 3,968ft
Runway 03L/21R: 3,746ft
Runway H1: 56ft
Access: Open to the public
Current Weather — VFR
  • Weather data is strictly informational and not for flight planning purposes.
  • METAR
    2024-04-22 00:53:00 EDT
    Ceiling Wind Temperature Dewpoint Weather Visbility
    Sky clear 340° @ 10kt 48°F 35°F N/A 10SM
    Raw: KPDK 220453Z AUTO 34010KT 10SM CLR 09/02 A3006 RMK AO2 SLP183 T00940022 401440083 PNO
  • TAF
    2024-04-21 20:00:00 EDT – 2024-04-22 10:00:00 EDT
    Ceiling Wind Weather Visbility
    Sky clear 330° @ 11kt N/A 6SM
    Clouds: @ ft
    Raw: KPDK 212341Z 2200/2224 33011KT P6SM SKC FM221400 03006KT P6SM FEW250 FM221900 34005KT P6SM SKC
  • TAF
    2024-04-22 10:00:00 EDT – 2024-04-22 15:00:00 EDT
    Ceiling Wind Weather Visbility
    Sky clear 30° @ 6kt N/A 6SM
    Clouds: Few @ 25,000ft
    Raw: KPDK 212341Z 2200/2224 33011KT P6SM SKC FM221400 03006KT P6SM FEW250 FM221900 34005KT P6SM SKC
  • TAF
    2024-04-22 15:00:00 EDT – 2024-04-22 20:00:00 EDT
    Ceiling Wind Weather Visbility
    Sky clear 340° @ 5kt N/A 6SM
    Clouds: @ ft
    Raw: KPDK 212341Z 2200/2224 33011KT P6SM SKC FM221400 03006KT P6SM FEW250 FM221900 34005KT P6SM SKC
Click/tap to add an annotation marker to the map
Airport Webcams
No webcams added yet.
Direct links to live image URLs will be displayed inline on this page. URLs to separate webpages will be linked to.
URL:
Direct links to live image URLs will be displayed inline on this page. URLs to separate webpages will be linked to.
URL:
Remarks
  • Existed prior to 1959.
  • Arff on field, no index.
  • Voluntary night curfew in effect from 2300-0600. no high power engine/maintenance runups from 2200-0700.
  • Noise sensitive areas all quadrants. pilots use close-in departure procedures.
  • Heavy vfr helo ops nw corner and eastside of arpt. heli lctd north of ry 16 thld.
Comments
  • This comment was flagged as outdated on .

    The Downwind Restaurant is located on the airport, and is a short walk from transient parking at Epps Aviation.

    Created about 1 year ago (2023-03-29 13:51:03 UTC)
    Helpful count: 0
Leave a comment What was your experience like at this airport?